Airfield :
LOGIN :

Register | Disclaimer

   EN    FR    IT 

 










Legend :    VFR   Marginal VFR   IFR   Intensive IFR   Very Intensive IFR
Visi :
Ceiling :
>= 8 km
>= 3000ft
5 to 8 km
1000 to 3000 ft
1500m to 5 km
500 to 1000 ft
800 to 1500m
200 to 500 ft
< 800m
< 200 ft
Symbols :   Thunderstorms  Fog  Heavy snow  Heavy precipitations  Wind > 20 kt
SIGMETs :     Misc.  Thunderstorms  Icing  Turbulence  Mountain Waves  Volcanic Ashes






- Airport Elevation : 17 ft
- IATA code : GRQ


EHGG - Groningen Eelde

CURRENT METAR :
  • 230155Z AUTO 19004KT 160V230 9999 SCT020/// BKN024/// BKN031/// 18/17 Q1014

EXPIRED METARs :
  • 230125Z AUTO 20004KT 170V260 9999 SCT028/// OVC034/// 18/17 Q1014
  • 230055Z AUTO 21007KT 9999 FEW015CB BKN029 OVC032 18/17 Q1014 RERA
  • 230025Z AUTO 19005KT 9999 SCT023/// OVC028/// 18/16 Q1015
  • 222355Z AUTO 22004KT 190V260 9999 SCT027 BKN030 BKN039 18/16 Q1015
  • 222325Z AUTO VRB02KT 9999 FEW031 18/15 Q1015
  • 222255Z AUTO 18004KT 140V220 9999 BKN031 OVC037 18/15 Q1015
  • 222225Z AUTO 16004KT 130V200 9999 OVC032 19/15 Q1015
  • 222155Z AUTO 16004KT 120V190 9999 FEW043 19/15 Q1015
  • 222125Z AUTO 15004KT 9999 OVC037/// 19/15 Q1016

TAF TAF EHGG
Valid from the 23 at 00:00 until the 24 at 06:00 UTC


222308Z 2300/2406 18005KT 9999 BKN030
PROB40
TEMPO 2300/2307 7000 -DZRA -SHRA FEW018TCU BKN025
PROB30
TEMPO 2305/2311 SCT008 BKN012
TEMPO 2307/2316 4000 SHRA BKN016 SCT020CB
BECMG 2309/2312 31010KT
PROB40
TEMPO 2320/2402 7000 -DZ BKN014



MET'MAP, your aeronautical weather chart ! - Copyright ORBIFLY December 2007 - Disclaimer

ORBIFLY MET'MAP TEAM :

Programming & Development : Alexandra Zaïnal
Original concept : Baudouin d'Aumeries
Technical & hardware support : Manuel Goepfert
Assistance : Marc-Olivier Méhu




SOURCES & CREDITS :

   NOAA